Time;durP1;ratioP1;P1;durP2;ratioP2;P2;SDS_P1;SDS_P2;PMS_P1;PMS_P2;Temp;Humidity;BMP_temperature;BMP_pressure;BME280_temperature;BME280_humidity;BME280_pressure;Samples;Min_cycle;Max_cycle;Signal;HPM_P1;HPM_P2
2021/09/04 00:01:41;;;;;;;45.35;25.95;;;12.20;99.90;;;;;;4195724;28;20115;-74
2021/09/04 00:03:42;;;;;;;55.80;28.42;;;12.20;99.90;;;;;;4213347;28;20111;-73
2021/09/04 00:05:43;;;;;;;49.90;25.83;;;12.20;99.90;;;;;;4213832;28;20066;-73
2021/09/04 00:07:43;;;;;;;55.53;27.20;;;12.20;99.90;;;;;;4197377;28;20078;-72
2021/09/04 00:09:44;;;;;;;54.67;25.95;;;12.20;99.90;;;;;;4189231;28;20037;-72
2021/09/04 00:11:44;;;;;;;51.20;26.75;;;12.20;99.90;;;;;;4208777;28;20043;-73
2021/09/04 00:13:46;;;;;;;51.38;27.83;;;12.20;99.90;;;;;;4212586;28;20375;-73
2021/09/04 00:15:47;;;;;;;55.28;27.35;;;12.20;99.90;;;;;;4208972;28;20060;-73
2021/09/04 00:17:47;;;;;;;51.53;26.73;;;12.10;99.90;;;;;;4191718;28;20040;-73
2021/09/04 00:19:48;;;;;;;53.03;27.27;;;12.10;99.90;;;;;;4209596;28;20037;-74
2021/09/04 00:21:49;;;;;;;51.45;25.80;;;12.00;99.90;;;;;;4192589;28;20032;-74
2021/09/04 00:23:49;;;;;;;53.45;27.63;;;12.00;99.90;;;;;;4211361;28;20406;-74
2021/09/04 00:25:50;;;;;;;51.28;26.08;;;12.10;99.90;;;;;;4201934;28;20063;-74
2021/09/04 00:27:50;;;;;;;53.53;26.30;;;12.00;99.90;;;;;;4211694;28;20402;-74
2021/09/04 00:29:51;;;;;;;52.35;28.13;;;11.90;99.90;;;;;;4213803;28;20044;-74
2021/09/04 00:31:52;;;;;;;54.78;26.23;;;12.00;99.90;;;;;;4192229;28;20041;-74
2021/09/04 00:33:53;;;;;;;53.38;26.40;;;11.90;99.90;;;;;;4208182;28;20189;-73
2021/09/04 00:35:53;;;;;;;54.92;25.65;;;11.80;99.90;;;;;;4210409;28;20549;-73
2021/09/04 00:37:54;;;;;;;45.15;24.90;;;11.70;99.90;;;;;;4194787;28;20059;-73
2021/09/04 00:39:55;;;;;;;53.40;25.45;;;11.70;99.90;;;;;;4212669;28;20059;-73
2021/09/04 00:41:56;;;;;;;51.15;27.98;;;11.80;99.90;;;;;;4195595;28;20278;-73
2021/09/04 00:43:56;;;;;;;53.28;24.98;;;11.80;99.90;;;;;;4209459;28;20172;-73
2021/09/04 00:46:10;;;;;;;50.03;24.98;;;11.80;99.90;;;;;;4207834;28;20040;-73
2021/09/04 00:48:10;;;;;;;49.47;25.65;;;11.70;99.90;;;;;;4189843;28;20040;-73
2021/09/04 00:50:11;;;;;;;56.08;26.35;;;11.60;99.90;;;;;;4209532;28;20041;-73
2021/09/04 00:52:12;;;;;;;55.92;25.27;;;11.60;99.90;;;;;;4194607;28;20028;-73
2021/09/04 00:54:13;;;;;;;49.33;25.98;;;11.70;99.90;;;;;;4213375;28;20741;-73
2021/09/04 00:56:15;;;;;;;55.17;25.40;;;11.60;99.90;;;;;;4193925;28;20032;-73
2021/09/04 00:58:15;;;;;;;45.85;24.30;;;11.60;99.90;;;;;;4213268;28;20512;-73
2021/09/04 01:00:16;;;;;;;46.63;25.02;;;11.60;99.90;;;;;;4209895;28;20035;-73
2021/09/04 01:02:17;;;;;;;48.40;24.65;;;11.60;99.90;;;;;;4211514;28;20043;-73
2021/09/04 01:04:18;;;;;;;58.42;25.67;;;11.60;99.90;;;;;;4212465;28;20353;-73
2021/09/04 01:06:19;;;;;;;51.25;25.23;;;11.60;99.90;;;;;;4212404;28;20065;-73
2021/09/04 01:08:20;;;;;;;50.63;23.83;;;11.60;99.90;;;;;;4207710;28;20094;-73
2021/09/04 01:10:21;;;;;;;53.03;26.55;;;11.60;99.90;;;;;;4208863;28;20020;-73
2021/09/04 01:12:22;;;;;;;52.75;26.98;;;11.50;99.90;;;;;;4211582;28;20506;-73
2021/09/04 01:14:23;;;;;;;53.50;25.40;;;11.50;99.90;;;;;;4211167;28;20402;-74
2021/09/04 01:16:36;;;;;;;50.72;25.25;;;11.40;99.90;;;;;;4206680;28;20032;-74
2021/09/04 01:18:36;;;;;;;50.63;25.23;;;11.40;99.90;;;;;;4210794;28;20036;-73
2021/09/04 01:20:37;;;;;;;50.40;26.23;;;11.50;99.90;;;;;;4192243;28;20029;-73
2021/09/04 01:22:38;;;;;;;56.13;24.73;;;11.40;99.90;;;;;;4212305;28;20482;-74
2021/09/04 01:24:38;;;;;;;55.00;24.60;;;11.40;99.90;;;;;;4204861;28;20154;-74
2021/09/04 01:26:39;;;;;;;60.58;26.10;;;11.40;99.90;;;;;;4209439;28;20589;-73
2021/09/04 01:28:40;;;;;;;53.05;24.13;;;11.30;99.90;;;;;;4194723;28;20096;-73
2021/09/04 01:30:40;;;;;;;51.65;24.98;;;11.20;99.90;;;;;;4209649;28;20064;-73
2021/09/04 01:32:42;;;;;;;52.08;25.17;;;11.20;99.90;;;;;;4205249;28;20043;-73
2021/09/04 01:34:42;;;;;;;54.63;25.55;;;11.20;99.90;;;;;;4210849;28;20028;-74
2021/09/04 01:36:43;;;;;;;53.90;25.00;;;11.20;99.90;;;;;;4211422;28;20032;-73
2021/09/04 01:38:44;;;;;;;50.65;25.00;;;11.20;99.90;;;;;;4190229;28;20368;-73
2021/09/04 01:40:44;;;;;;;44.40;22.90;;;11.10;99.90;;;;;;4204604;28;20067;-73
2021/09/04 01:42:48;;;;;;;54.13;25.15;;;11.10;99.90;;;;;;4210156;28;20032;-73
2021/09/04 01:44:48;;;;;;;58.60;24.75;;;11.10;99.90;;;;;;4209023;28;20079;-74
2021/09/04 01:46:50;;;;;;;58.65;23.30;;;11.10;99.90;;;;;;4210481;28;20048;-74
2021/09/04 01:48:50;;;;;;;56.17;23.98;;;11.00;99.90;;;;;;4213587;28;20039;-73
2021/09/04 01:50:51;;;;;;;53.50;24.27;;;11.00;99.90;;;;;;4194934;28;20028;-73
2021/09/04 01:52:52;;;;;;;64.47;26.08;;;11.00;99.90;;;;;;4191843;28;20033;-73
2021/09/04 01:54:52;;;;;;;53.05;24.15;;;11.00;99.90;;;;;;4209624;28;20043;-73
2021/09/04 01:56:53;;;;;;;52.75;23.85;;;11.00;99.90;;;;;;4195351;28;20021;-73
2021/09/04 01:58:54;;;;;;;52.60;23.52;;;11.00;99.90;;;;;;4210211;28;20078;-73
2021/09/04 02:00:54;;;;;;;58.90;24.20;;;11.00;99.90;;;;;;4204211;28;20407;-72
2021/09/04 02:02:56;;;;;;;55.33;24.05;;;11.00;99.90;;;;;;4194471;28;20039;-73
2021/09/04 02:04:56;;;;;;;54.75;24.20;;;11.00;99.90;;;;;;4211169;28;20031;-73
2021/09/04 02:06:57;;;;;;;51.70;24.88;;;10.90;99.90;;;;;;4210321;28;20465;-73
2021/09/04 02:08:58;;;;;;;60.88;23.52;;;10.90;99.90;;;;;;4185460;28;20522;-73
2021/09/04 02:10:59;;;;;;;53.47;24.15;;;10.90;99.90;;;;;;4210431;28;20028;-74
2021/09/04 02:12:59;;;;;;;53.97;24.30;;;10.90;99.90;;;;;;4210210;28;20035;-73
2021/09/04 02:15:00;;;;;;;61.10;23.80;;;10.90;99.90;;;;;;4191297;28;20480;-73
2021/09/04 02:17:01;;;;;;;60.13;25.58;;;10.90;99.90;;;;;;4218060;28;20404;-74
2021/09/04 02:19:01;;;;;;;63.08;24.60;;;10.80;99.90;;;;;;4192115;28;20094;-74
2021/09/04 02:21:02;;;;;;;58.63;21.70;;;10.80;99.90;;;;;;4210437;28;20565;-74
2021/09/04 02:23:03;;;;;;;54.42;23.13;;;10.80;99.90;;;;;;4209113;28;20056;-74
2021/09/04 02:25:04;;;;;;;58.25;24.08;;;10.70;99.90;;;;;;4204562;28;20032;-75
2021/09/04 02:27:05;;;;;;;54.85;24.65;;;10.70;99.90;;;;;;4209111;28;20127;-74
2021/09/04 02:29:06;;;;;;;55.90;24.83;;;10.80;99.90;;;;;;4213373;28;20051;-74
2021/09/04 02:31:07;;;;;;;61.97;24.80;;;10.90;99.90;;;;;;4210404;28;20032;-74
2021/09/04 02:33:07;;;;;;;63.47;26.45;;;11.10;99.90;;;;;;4202592;28;20028;-74
2021/09/04 02:35:08;;;;;;;61.53;26.48;;;11.20;99.90;;;;;;4208621;28;20040;-74
2021/09/04 02:37:09;;;;;;;62.85;26.73;;;11.40;99.90;;;;;;4212514;28;20509;-74
2021/09/04 02:39:09;;;;;;;58.15;24.73;;;11.50;99.90;;;;;;4210994;28;20127;-74
2021/09/04 02:41:10;;;;;;;62.92;26.38;;;11.60;99.90;;;;;;4203671;28;20169;-73
2021/09/04 02:43:11;;;;;;;65.43;27.63;;;11.70;99.90;;;;;;4193871;28;20383;-73
2021/09/04 02:45:11;;;;;;;78.90;29.05;;;11.80;99.90;;;;;;4208138;28;20118;-73
2021/09/04 02:47:12;;;;;;;69.72;28.38;;;11.90;99.90;;;;;;4208826;28;20036;-73
2021/09/04 02:49:12;;;;;;;60.78;30.00;;;11.90;99.90;;;;;;4208771;28;20040;-73
2021/09/04 02:51:13;;;;;;;72.40;29.42;;;12.00;99.90;;;;;;4206070;28;20127;-73
2021/09/04 02:53:14;;;;;;;71.53;30.33;;;12.00;99.90;;;;;;4209181;28;20028;-74
2021/09/04 02:55:14;;;;;;;80.63;31.13;;;12.00;99.90;;;;;;4205051;28;20035;-73
2021/09/04 02:57:15;;;;;;;73.38;29.08;;;12.00;99.90;;;;;;4206510;28;20385;-73
2021/09/04 02:59:15;;;;;;;65.55;30.85;;;12.00;99.90;;;;;;4206925;28;20036;-72
2021/09/04 03:01:16;;;;;;;72.35;28.67;;;12.10;99.90;;;;;;4207412;28;20041;-72
2021/09/04 03:03:16;;;;;;;68.13;29.05;;;12.10;99.90;;;;;;4205476;28;20028;-73
2021/09/04 03:05:18;;;;;;;78.05;31.27;;;12.10;99.90;;;;;;4190970;28;20025;-72
2021/09/04 03:07:18;;;;;;;72.68;30.52;;;12.10;99.90;;;;;;4205743;28;20032;-76
2021/09/04 03:09:19;;;;;;;80.00;29.38;;;12.10;99.90;;;;;;4207057;28;20287;-73
2021/09/04 03:11:20;;;;;;;69.70;30.38;;;12.10;99.90;;;;;;4209624;28;20108;-73
2021/09/04 03:13:21;;;;;;;68.55;32.35;;;12.10;99.90;;;;;;4207542;28;20503;-73
2021/09/04 03:15:22;;;;;;;78.80;31.25;;;12.20;99.90;;;;;;4209837;28;20039;-73
2021/09/04 03:17:23;;;;;;;76.93;31.25;;;12.10;99.90;;;;;;4211646;28;20032;-73
2021/09/04 03:19:23;;;;;;;74.15;31.50;;;12.10;99.90;;;;;;4210558;28;20024;-73
2021/09/04 03:21:24;;;;;;;73.03;31.23;;;12.10;99.90;;;;;;4211086;28;20036;-72
2021/09/04 03:23:25;;;;;;;68.78;30.50;;;12.20;99.90;;;;;;4211096;28;20040;-73
2021/09/04 03:25:25;;;;;;;69.93;30.42;;;12.20;99.90;;;;;;4212498;28;20044;-73
2021/09/04 03:27:26;;;;;;;72.85;28.83;;;12.20;99.90;;;;;;4213449;28;20449;-73
2021/09/04 03:29:29;;;;;;;72.05;30.35;;;12.20;99.90;;;;;;4197350;28;20442;-73
2021/09/04 03:31:30;;;;;;;68.78;30.17;;;12.20;99.90;;;;;;4212052;28;20036;-73
2021/09/04 03:33:30;;;;;;;63.90;29.77;;;12.20;99.90;;;;;;4201104;28;20035;-74
2021/09/04 03:35:31;;;;;;;62.75;26.58;;;12.30;99.90;;;;;;4210427;28;20134;-73
2021/09/04 03:37:32;;;;;;;64.15;30.15;;;12.30;99.90;;;;;;4195251;28;20056;-73
2021/09/04 03:39:32;;;;;;;72.85;30.40;;;12.30;99.90;;;;;;4211365;28;20043;-73
2021/09/04 03:41:33;;;;;;;64.40;30.13;;;12.30;99.90;;;;;;4215230;28;20040;-72
2021/09/04 03:43:35;;;;;;;63.33;28.27;;;12.30;99.90;;;;;;4211050;28;20075;-74
2021/09/04 03:45:36;;;;;;;67.03;29.58;;;12.30;99.90;;;;;;4188772;28;20041;-73
2021/09/04 03:47:36;;;;;;;63.58;29.33;;;12.40;99.90;;;;;;4211267;28;20049;-73
2021/09/04 03:49:37;;;;;;;62.60;28.77;;;12.30;99.90;;;;;;4214778;28;20042;-73
2021/09/04 03:51:38;;;;;;;65.13;30.23;;;12.30;99.90;;;;;;4212758;28;20036;-73
2021/09/04 03:53:38;;;;;;;67.70;31.20;;;12.40;99.90;;;;;;4205228;28;20032;-73
2021/09/04 03:55:39;;;;;;;60.83;30.67;;;12.40;99.90;;;;;;4212510;28;20047;-73
2021/09/04 03:57:40;;;;;;;66.72;30.00;;;12.40;99.90;;;;;;4207075;28;20071;-73
2021/09/04 03:59:40;;;;;;;65.07;30.35;;;12.40;99.90;;;;;;4211585;28;20032;-73
2021/09/04 04:01:41;;;;;;;70.18;31.77;;;12.40;99.90;;;;;;4206432;28;20058;-72
2021/09/04 04:03:41;;;;;;;75.30;33.17;;;12.40;99.90;;;;;;4211286;28;20127;-74
2021/09/04 04:05:42;;;;;;;76.32;32.22;;;12.40;99.90;;;;;;4197064;28;20040;-74
2021/09/04 04:07:43;;;;;;;72.88;32.38;;;12.40;99.90;;;;;;4210340;28;20177;-73
2021/09/04 04:09:44;;;;;;;66.85;31.05;;;12.50;99.90;;;;;;4194660;28;20373;-74
2021/09/04 04:11:45;;;;;;;70.18;32.42;;;12.50;99.90;;;;;;4210839;28;20024;-74
2021/09/04 04:13:45;;;;;;;69.85;28.40;;;12.50;99.90;;;;;;4211858;28;20039;-74
2021/09/04 04:15:46;;;;;;;70.93;30.23;;;12.50;99.90;;;;;;4210741;28;20125;-73
2021/09/04 04:17:47;;;;;;;66.03;30.58;;;12.50;99.90;;;;;;4214946;28;20379;-74
2021/09/04 04:19:47;;;;;;;64.00;29.33;;;12.50;99.90;;;;;;4212289;28;20127;-73
2021/09/04 04:21:48;;;;;;;58.53;26.90;;;12.50;99.90;;;;;;4214953;28;20395;-73
2021/09/04 04:23:49;;;;;;;58.53;27.48;;;12.50;99.90;;;;;;4212788;28;20032;-73
2021/09/04 04:25:50;;;;;;;59.42;28.40;;;12.50;99.90;;;;;;4206428;28;20061;-73
2021/09/04 04:27:51;;;;;;;67.57;28.77;;;12.50;99.90;;;;;;4195750;28;20029;-73
2021/09/04 04:29:51;;;;;;;60.80;29.25;;;12.50;99.90;;;;;;4213773;28;20169;-73
2021/09/04 04:31:52;;;;;;;65.15;30.42;;;12.50;99.90;;;;;;4211484;28;20024;-73
2021/09/04 04:33:53;;;;;;;64.05;29.48;;;12.50;99.90;;;;;;4209320;28;20052;-74
2021/09/04 04:35:54;;;;;;;59.35;28.20;;;12.50;99.90;;;;;;4211991;28;20139;-73
2021/09/04 04:37:54;;;;;;;55.83;29.17;;;12.50;99.90;;;;;;4213895;28;20401;-73
2021/09/04 04:39:55;;;;;;;60.30;28.92;;;12.50;99.90;;;;;;4195356;28;20064;-74
2021/09/04 04:41:56;;;;;;;66.00;31.58;;;12.60;99.90;;;;;;4214391;28;20039;-73
2021/09/04 04:43:56;;;;;;;70.15;30.52;;;12.50;99.90;;;;;;4212244;28;20218;-73
2021/09/04 04:45:57;;;;;;;64.70;30.27;;;12.60;99.90;;;;;;4186888;28;20044;-73
2021/09/04 04:47:57;;;;;;;60.25;29.67;;;12.60;99.90;;;;;;4209491;28;20429;-72
2021/09/04 04:49:58;;;;;;;63.10;28.35;;;12.60;99.90;;;;;;4190244;28;20061;-73
2021/09/04 04:51:59;;;;;;;60.00;29.30;;;12.60;99.90;;;;;;4193589;28;20041;-73
2021/09/04 04:53:59;;;;;;;56.67;28.15;;;12.60;99.90;;;;;;4211219;28;20028;-73
2021/09/04 04:56:02;;;;;;;57.15;28.17;;;12.60;99.90;;;;;;4209948;28;20044;-73
2021/09/04 04:58:03;;;;;;;60.75;30.15;;;12.60;99.90;;;;;;4214313;28;20405;-73
2021/09/04 05:00:04;;;;;;;53.20;26.73;;;12.60;99.90;;;;;;4210799;28;20127;-73
2021/09/04 05:02:04;;;;;;;57.33;27.88;;;12.60;99.90;;;;;;4207473;28;20495;-73
2021/09/04 05:04:05;;;;;;;56.17;29.25;;;12.60;99.90;;;;;;4196018;28;20036;-73
2021/09/04 05:06:06;;;;;;;51.80;26.63;;;12.60;99.90;;;;;;4207496;28;20032;-73
2021/09/04 05:08:07;;;;;;;58.17;29.02;;;12.60;99.90;;;;;;4210653;28;20032;-73
2021/09/04 05:10:08;;;;;;;58.45;29.00;;;12.60;99.90;;;;;;4207732;28;20561;-74
2021/09/04 05:12:08;;;;;;;56.83;27.40;;;12.60;99.90;;;;;;4209800;28;20039;-73
2021/09/04 05:14:09;;;;;;;55.90;27.88;;;12.60;99.90;;;;;;4195975;28;20040;-73
2021/09/04 05:16:11;;;;;;;56.45;27.50;;;12.60;99.90;;;;;;4211111;28;20495;-73
2021/09/04 05:18:11;;;;;;;57.33;27.60;;;12.60;99.90;;;;;;4190947;28;20032;-74
2021/09/04 05:20:12;;;;;;;59.03;27.42;;;12.60;99.90;;;;;;4210360;28;20549;-74
2021/09/04 05:22:13;;;;;;;54.75;27.45;;;12.60;99.90;;;;;;4189654;28;20048;-74
2021/09/04 05:24:13;;;;;;;51.88;27.75;;;12.70;99.90;;;;;;4209334;28;20020;-74
2021/09/04 05:26:14;;;;;;;57.97;28.15;;;12.70;99.90;;;;;;4213225;28;20085;-72
2021/09/04 05:28:14;;;;;;;61.90;30.67;;;12.70;99.90;;;;;;4209617;28;20495;-73
2021/09/04 05:30:15;;;;;;;65.68;30.48;;;12.70;99.90;;;;;;4207856;28;20363;-73
2021/09/04 05:32:22;;;;;;;58.63;30.38;;;12.70;99.90;;;;;;4209386;28;20379;-73
2021/09/04 05:34:23;;;;;;;61.17;28.30;;;12.70;99.90;;;;;;4210166;28;20030;-73
2021/09/04 05:36:24;;;;;;;58.33;29.38;;;12.80;99.90;;;;;;4210976;28;20488;-73
2021/09/04 05:38:25;;;;;;;54.63;28.45;;;12.70;99.90;;;;;;4208329;28;20066;-72
2021/09/04 05:40:25;;;;;;;60.90;30.50;;;12.80;99.90;;;;;;4194790;28;20040;-73
2021/09/04 05:42:26;;;;;;;64.28;29.67;;;12.70;99.90;;;;;;4207461;28;20075;-73
2021/09/04 05:44:26;;;;;;;58.92;28.55;;;12.80;99.90;;;;;;4210823;28;20734;-74
2021/09/04 05:46:27;;;;;;;58.13;28.98;;;12.80;99.90;;;;;;4211856;28;20024;-74
2021/09/04 05:48:28;;;;;;;64.38;28.85;;;12.80;99.90;;;;;;4210308;28;20112;-73
2021/09/04 05:50:28;;;;;;;58.83;28.92;;;12.80;99.90;;;;;;4206487;28;20039;-73
2021/09/04 05:52:29;;;;;;;58.97;27.50;;;12.90;99.90;;;;;;4210864;28;20029;-73
2021/09/04 05:54:30;;;;;;;53.13;26.67;;;12.90;99.90;;;;;;4188102;28;20025;-73
2021/09/04 05:56:30;;;;;;;54.53;28.00;;;12.90;99.90;;;;;;4210102;28;20422;-73
2021/09/04 05:58:31;;;;;;;55.13;28.88;;;12.90;99.90;;;;;;4212887;28;20028;-74
2021/09/04 06:00:32;;;;;;;53.20;28.20;;;12.90;99.90;;;;;;4210691;28;20024;-73
2021/09/04 06:02:32;;;;;;;58.05;29.33;;;13.00;99.90;;;;;;4191663;28;20387;-73
2021/09/04 06:04:36;;;;;;;55.45;30.08;;;13.00;99.90;;;;;;4210587;28;20040;-73
2021/09/04 06:06:37;;;;;;;52.35;29.02;;;13.00;99.90;;;;;;4211877;28;20039;-73
2021/09/04 06:08:39;;;;;;;46.60;27.83;;;13.10;99.90;;;;;;4193804;28;20552;-73
2021/09/04 06:10:40;;;;;;;53.30;27.25;;;13.00;99.90;;;;;;4209570;28;20036;-74
2021/09/04 06:12:40;;;;;;;44.25;25.90;;;13.00;99.90;;;;;;4195724;28;20480;-74
2021/09/04 06:14:42;;;;;;;40.55;25.70;;;13.10;99.90;;;;;;4190774;28;20119;-73
2021/09/04 06:16:42;;;;;;;44.20;26.20;;;13.10;99.90;;;;;;4210207;28;20028;-74
2021/09/04 06:18:43;;;;;;;46.80;26.45;;;13.10;99.90;;;;;;4211159;28;20039;-73
2021/09/04 06:20:43;;;;;;;38.47;23.30;;;13.10;99.90;;;;;;4210062;28;20108;-73
2021/09/04 06:22:44;;;;;;;40.65;24.67;;;13.10;99.90;;;;;;4193383;28;20418;-73
2021/09/04 06:24:45;;;;;;;46.55;24.60;;;13.10;99.90;;;;;;4210405;28;20062;-74
2021/09/04 06:26:45;;;;;;;46.85;25.88;;;13.10;99.90;;;;;;4208899;28;20165;-74
2021/09/04 06:28:46;;;;;;;38.90;24.15;;;13.10;99.90;;;;;;4210109;28;20037;-74
2021/09/04 06:30:46;;;;;;;40.33;25.52;;;13.20;99.90;;;;;;4191282;28;20029;-74
2021/09/04 06:32:47;;;;;;;39.65;25.38;;;13.20;99.90;;;;;;4210269;28;20070;-74
2021/09/04 06:34:48;;;;;;;35.70;23.23;;;13.30;99.90;;;;;;4211915;28;20165;-74
2021/09/04 06:36:48;;;;;;;44.40;25.77;;;13.30;99.90;;;;;;4208832;28;20512;-73
2021/09/04 06:38:49;;;;;;;44.58;25.23;;;13.30;99.90;;;;;;4192415;28;20028;-73
2021/09/04 06:40:49;;;;;;;35.67;23.75;;;13.40;99.90;;;;;;4207503;28;20031;-73
2021/09/04 06:42:50;;;;;;;31.52;22.23;;;13.40;99.90;;;;;;4193257;28;20032;-73
2021/09/04 06:44:50;;;;;;;31.27;22.77;;;13.40;99.90;;;;;;4201786;28;20136;-73
2021/09/04 06:46:51;;;;;;;36.97;23.05;;;13.40;99.90;;;;;;4200814;28;20071;-73
2021/09/04 06:48:52;;;;;;;30.95;21.85;;;13.50;99.90;;;;;;4202166;28;20086;-73
2021/09/04 06:50:53;;;;;;;30.83;22.05;;;13.50;99.90;;;;;;4200720;28;20113;-73
2021/09/04 06:52:53;;;;;;;36.90;23.85;;;13.60;99.90;;;;;;4203024;28;20028;-73
2021/09/04 06:54:54;;;;;;;30.48;21.75;;;13.50;99.90;;;;;;4201871;28;20113;-73
2021/09/04 06:56:54;;;;;;;39.28;24.00;;;13.50;99.90;;;;;;4200933;28;20020;-73
2021/09/04 06:58:55;;;;;;;29.02;22.50;;;13.60;99.90;;;;;;4197994;28;20032;-73
2021/09/04 07:00:58;;;;;;;34.30;21.95;;;13.60;99.90;;;;;;4202988;28;20035;-73
2021/09/04 07:02:58;;;;;;;32.63;21.50;;;13.70;99.90;;;;;;4206967;28;20446;-73
2021/09/04 07:04:59;;;;;;;29.15;19.95;;;13.70;99.90;;;;;;4207499;28;20028;-73
2021/09/04 07:07:04;;;;;;;30.27;19.30;;;13.80;99.90;;;;;;4202468;28;20117;-73
2021/09/04 07:09:04;;;;;;;30.83;20.25;;;13.80;99.90;;;;;;4189222;28;20029;-73
2021/09/04 07:11:05;;;;;;;27.95;20.00;;;13.80;99.90;;;;;;4206692;28;20081;-73
2021/09/04 07:13:06;;;;;;;27.83;19.90;;;13.80;99.90;;;;;;4209373;28;20062;-73
2021/09/04 07:15:07;;;;;;;31.30;21.17;;;13.90;99.90;;;;;;4203154;28;20031;-73
2021/09/04 07:17:07;;;;;;;32.38;21.63;;;13.80;99.90;;;;;;4210030;28;20084;-73
2021/09/04 07:19:08;;;;;;;26.45;19.77;;;13.80;99.90;;;;;;4208119;28;20111;-73
2021/09/04 07:21:09;;;;;;;28.20;20.38;;;13.80;99.90;;;;;;4213747;28;20028;-73
2021/09/04 07:23:09;;;;;;;29.55;20.52;;;13.90;99.90;;;;;;4192469;28;20392;-73
2021/09/04 07:25:10;;;;;;;29.80;18.98;;;13.90;99.90;;;;;;4213181;28;20039;-74
2021/09/04 07:27:11;;;;;;;30.40;19.70;;;14.00;99.90;;;;;;4210369;28;20035;-74
2021/09/04 07:29:11;;;;;;;41.10;20.25;;;14.10;99.90;;;;;;4213370;28;20081;-74
2021/09/04 07:31:12;;;;;;;32.03;20.45;;;14.20;99.90;;;;;;4215080;28;20499;-74
2021/09/04 07:33:13;;;;;;;31.92;20.02;;;14.20;99.90;;;;;;4195742;28;20086;-74
2021/09/04 07:35:13;;;;;;;26.85;19.10;;;14.20;99.90;;;;;;4196634;28;20028;-73
2021/09/04 07:37:14;;;;;;;25.65;19.60;;;14.30;99.90;;;;;;4212761;28;20020;-73
2021/09/04 07:39:15;;;;;;;25.27;18.13;;;14.40;99.90;;;;;;4211085;28;20124;-74
2021/09/04 07:41:16;;;;;;;53.17;39.45;;;14.50;99.90;;;;;;4212720;28;20030;-72
2021/09/04 07:43:17;;;;;;;37.58;26.08;;;14.60;99.90;;;;;;4210991;28;20036;-74
2021/09/04 07:45:17;;;;;;;27.33;19.35;;;14.70;99.90;;;;;;4194929;28;20044;-73
2021/09/04 07:47:18;;;;;;;33.50;20.98;;;14.70;99.90;;;;;;4205379;28;20032;-73
2021/09/04 07:49:18;;;;;;;24.08;17.10;;;14.80;99.90;;;;;;4212102;28;20052;-73
2021/09/04 07:51:19;;;;;;;28.15;19.30;;;14.90;99.90;;;;;;4207107;28;20020;-73
2021/09/04 07:53:20;;;;;;;26.83;19.38;;;15.00;99.90;;;;;;4210697;28;20032;-74
2021/09/04 07:55:20;;;;;;;28.02;16.77;;;15.10;99.90;;;;;;4207301;28;20072;-72
2021/09/04 07:57:21;;;;;;;26.75;15.25;;;15.20;99.90;;;;;;4193059;28;20120;-72
2021/09/04 07:59:21;;;;;;;24.70;16.73;;;15.30;99.90;;;;;;4205621;28;20044;-72
2021/09/04 08:01:22;;;;;;;24.38;17.38;;;15.50;99.90;;;;;;4192461;28;20024;-73
2021/09/04 08:03:22;;;;;;;29.08;17.52;;;15.60;99.90;;;;;;4211872;28;20040;-73
2021/09/04 08:05:23;;;;;;;20.17;17.58;;;15.50;99.90;;;;;;4196747;28;20114;-73
2021/09/04 08:07:24;;;;;;;18.48;15.88;;;15.80;99.90;;;;;;4209156;28;20514;-72
2021/09/04 08:09:24;;;;;;;25.55;16.38;;;16.00;99.90;;;;;;4192327;28;20045;-72
2021/09/04 08:11:25;;;;;;;20.95;16.80;;;16.10;99.90;;;;;;4194522;28;20044;-72
2021/09/04 08:13:25;;;;;;;26.10;17.50;;;16.10;99.90;;;;;;4185664;28;20037;-73
2021/09/04 08:15:26;;;;;;;19.85;14.82;;;16.00;99.90;;;;;;4182411;28;20781;-73
2021/09/04 08:17:27;;;;;;;23.08;16.42;;;16.00;99.90;;;;;;4208041;28;20047;-73
2021/09/04 08:19:27;;;;;;;24.17;16.55;;;16.20;99.90;;;;;;4191999;28;20092;-73
2021/09/04 08:21:28;;;;;;;32.80;21.10;;;16.40;99.90;;;;;;4209749;28;20040;-73
2021/09/04 08:23:29;;;;;;;20.48;16.02;;;16.60;99.90;;;;;;4203748;28;20586;-73
2021/09/04 08:25:29;;;;;;;19.33;15.48;;;16.70;99.90;;;;;;4196013;28;20045;-74
2021/09/04 08:27:30;;;;;;;19.00;13.80;;;16.90;99.90;;;;;;4210249;28;20043;-72
2021/09/04 08:29:31;;;;;;;22.92;16.35;;;17.10;99.90;;;;;;4193870;28;20098;-73
2021/09/04 08:31:31;;;;;;;18.75;15.05;;;17.10;99.90;;;;;;4213328;28;20032;-73
2021/09/04 08:33:32;;;;;;;19.45;14.15;;;17.10;99.90;;;;;;4211584;28;20069;-73
2021/09/04 08:35:33;;;;;;;19.27;14.55;;;17.00;99.90;;;;;;4207372;28;20033;-72
2021/09/04 08:37:33;;;;;;;20.48;14.25;;;16.50;99.90;;;;;;4210893;28;20070;-72
2021/09/04 08:39:34;;;;;;;19.05;15.82;;;16.20;99.90;;;;;;4211395;28;20054;-72
2021/09/04 08:41:36;;;;;;;18.10;14.43;;;16.00;99.90;;;;;;4212220;28;20683;-73
2021/09/04 08:43:37;;;;;;;20.15;15.02;;;15.90;99.90;;;;;;4212744;28;20087;-73
2021/09/04 08:45:37;;;;;;;24.60;15.07;;;15.80;99.90;;;;;;4194841;28;20077;-72
2021/09/04 08:47:44;;;;;;;23.00;14.63;;;15.80;99.90;;;;;;4206615;28;20111;-73
2021/09/04 08:49:47;;;;;;;22.67;15.90;;;16.00;99.90;;;;;;4211037;28;20044;-72
2021/09/04 08:51:48;;;;;;;;;;;16.20;99.90;;;;;;4213381;28;20024;-73
2021/09/04 08:53:48;;;;;;;21.45;14.60;;;16.40;99.90;;;;;;4211618;28;20287;-72
2021/09/04 08:55:49;;;;;;;20.92;14.63;;;16.50;99.90;;;;;;4210642;28;20039;-72
2021/09/04 08:57:50;;;;;;;25.85;15.52;;;16.60;99.90;;;;;;4187268;28;20135;-73
2021/09/04 08:59:51;;;;;;;18.60;14.50;;;16.70;99.90;;;;;;4201764;28;20056;-74
2021/09/04 09:01:52;;;;;;;19.95;15.32;;;16.80;99.90;;;;;;4206360;28;20058;-73
2021/09/04 09:03:55;;;;;;;21.20;16.13;;;16.80;99.90;;;;;;4205284;28;20543;-73
2021/09/04 09:05:58;;;;;;;;;;;16.80;99.90;;;;;;4210352;28;20632;-73
2021/09/04 09:07:59;;;;;;;21.13;14.68;;;16.90;99.90;;;;;;4208746;28;19941;-73
2021/09/04 09:10:00;;;;;;;22.05;14.82;;;16.90;99.90;;;;;;4206058;28;20601;-73
2021/09/04 09:12:08;;;;;;;22.30;15.93;;;17.00;99.90;;;;;;4202770;28;20506;-73
2021/09/04 09:14:09;;;;;;;24.08;16.25;;;17.00;99.90;;;;;;4201851;28;20444;-73
2021/09/04 09:16:14;;;;;;;21.13;15.75;;;17.30;99.90;;;;;;4186241;28;20044;-72
2021/09/04 09:18:17;;;;;;;16.00;13.68;;;17.80;99.90;;;;;;4207484;28;20123;-72
2021/09/04 09:20:23;;;;;;;19.42;14.40;;;18.20;99.90;;;;;;4209068;28;20050;-73
2021/09/04 09:22:23;;;;;;;20.58;14.43;;;18.50;99.90;;;;;;4193687;28;20036;-73
2021/09/04 09:24:25;;;;;;;17.98;13.75;;;18.40;99.90;;;;;;4208926;28;20046;-73
2021/09/04 09:26:29;;;;;;;20.63;14.05;;;18.60;99.90;;;;;;4205821;28;20116;-72
2021/09/04 09:28:30;;;;;;;17.25;14.52;;;19.10;99.90;;;;;;4191559;28;20498;-72
2021/09/04 09:30:33;;;;;;;19.83;15.25;;;19.60;99.90;;;;;;4193411;28;20032;-72
2021/09/04 09:32:34;;;;;;;18.17;14.55;;;19.90;99.90;;;;;;4209878;28;20028;-72
2021/09/04 09:34:41;;;;;;;19.13;14.48;;;20.00;99.90;;;;;;4205500;28;20056;-73
2021/09/04 09:37:08;;;;;;;17.05;13.70;;;19.80;99.90;;;;;;4209679;28;20028;-74
2021/09/04 09:39:12;;;;;;;22.40;15.32;;;19.50;99.90;;;;;;4200759;28;20079;-73
2021/09/04 09:41:12;;;;;;;23.92;17.98;;;19.30;99.90;;;;;;4209961;28;20034;-72
2021/09/04 09:43:24;;;;;;;18.50;15.18;;;19.30;99.90;;;;;;4185202;28;20483;-73
2021/09/04 09:45:45;;;;;;;19.23;14.68;;;19.30;99.90;;;;;;4206795;28;20120;-72
2021/09/04 09:47:51;;;;;;;18.45;14.68;;;19.30;99.90;;;;;;4199035;28;20040;-72
2021/09/04 09:49:52;;;;;;;23.27;16.10;;;19.00;99.90;;;;;;4208340;28;20040;-73
2021/09/04 09:51:58;;;;;;;16.95;14.20;;;19.10;99.90;;;;;;4203031;28;20059;-73
2021/09/04 09:53:59;;;;;;;21.15;15.65;;;19.30;99.90;;;;;;4208698;28;20119;-71
2021/09/04 09:56:00;;;;;;;21.35;17.00;;;19.50;99.90;;;;;;4206739;28;20032;-74
2021/09/04 09:58:02;;;;;;;26.27;15.45;;;19.40;99.90;;;;;;4192895;28;20044;-72
2021/09/04 10:00:03;;;;;;;23.08;16.10;;;19.40;99.90;;;;;;4207469;28;20035;-73
2021/09/04 10:02:09;;;;;;;18.63;15.93;;;19.40;99.90;;;;;;4210780;28;20028;-74
2021/09/04 10:04:11;;;;;;;19.52;16.63;;;19.40;99.90;;;;;;4205366;28;20028;-73
2021/09/04 10:06:13;;;;;;;20.13;16.27;;;19.50;99.90;;;;;;4210567;28;20477;-73
2021/09/04 10:08:16;;;;;;;22.00;19.13;;;20.00;99.90;;;;;;4208777;28;20028;-73
2021/09/04 10:10:16;;;;;;;27.88;19.48;;;20.50;99.90;;;;;;4194991;28;20040;-73
2021/09/04 10:12:18;;;;;;;21.90;17.40;;;20.70;99.90;;;;;;4192360;28;20178;-74
2021/09/04 10:14:20;;;;;;;23.85;17.85;;;20.90;99.90;;;;;;4191531;28;20031;-71
2021/09/04 10:16:21;;;;;;;22.75;15.68;;;21.30;99.90;;;;;;4211056;28;20060;-72